TAF and METAR

Decoding for American and Canadian METARs and TAFs is not fully implemented.

Could not understand the following METAR

PAFB 270258Z AUTO 25003KT 10SM CLR M20/M24 A2982 RMK AO2 SLPNO T12001245 55002

TAF for Wainwright Army Airfield

TAF PAFB 270000Z 2700/2806 VRB02KT 9999 SKC QNH2981INS TXM16/2700Z TNM34/2717Z
Report created 27. februar 2020 01:00

between 27. februar 2020 01:00 - 28. februar 2020 07:00

wind 2 knots from various directions visibility > 10km
Wainwright Army Airfield in United States of America at 137m

Latest 5 airports